Simmons Army Air Field Fort Bragg US
ICAO: KFBG
IATA: FBG
Category: Medium
Scheduled Services: No

Elevation: 244 ft
TransAlt. 18000 ft.

Airport Communications:
FAYETTEVILLE APP/DEP:133
FLT ADVSY:125.9
ATIS:139.25
GND/CLNC DEL:121.9
RANGE RDO:46.75
BASE OPS:142.35
PMSV METRO:141.25
TWR:125.9

KFBG Zoom In..

Runways:

(A) RW 09 length 5011 ft width 110 ft
---- / hdg 93

(B) RW 27 length 5011 ft width 110 ft
---- / hdg 273

Location; KFBG
Day. 16 / Time. 18.21 Zulu
* Altimeter: 30.01
* Temperature: 31° c. 87.8°f.
* Wind from: 250° Speed 09 kn.
Dewpoint: 22° c.
Visibility: 10 Statute Miles.
Clouds: Scattered 3800 ft.
Clouds: Scattered 4800 ft.
Clouds: Broken 2000 ft.

KFBG 161821Z AUTO 25009KT 10SM SCT038 SCT048 BKN200 31/22 A3001 RMK AO2 SLP163 $


Wind From 250°
Speed 09 kn.

 
 
jpsmedia.com for Web Design worldairports.se 2018   terms of use